Time;durP1;ratioP1;P1;durP2;ratioP2;P2;SDS_P1;SDS_P2;PMS_P1;PMS_P2;Temp;Humidity;BMP_temperature;BMP_pressure;BME280_temperature;BME280_humidity;BME280_pressure;Samples;Min_cycle;Max_cycle;Signal;HPM_P1;HPM_P2
2021/07/12 00:00:11;;;;;;;7.03;6.33;;;18.80;99.90;;;;;;5053435;28;20173;-70
2021/07/12 00:02:36;;;;;;;7.60;6.50;;;18.80;99.90;;;;;;5051224;28;20184;-70
2021/07/12 00:05:04;;;;;;;7.07;6.43;;;18.80;99.90;;;;;;5053302;28;20559;-70
2021/07/12 00:07:29;;;;;;;7.00;6.27;;;18.80;99.90;;;;;;5052932;28;20196;-69
2021/07/12 00:09:55;;;;;;;8.23;6.40;;;18.80;99.90;;;;;;5052999;28;20253;-69
2021/07/12 00:12:20;;;;;;;7.13;6.43;;;18.80;99.90;;;;;;5052228;28;20662;-69
2021/07/12 00:14:46;;;;;;;7.03;5.93;;;18.80;99.90;;;;;;5051900;28;20174;-70
2021/07/12 00:17:11;;;;;;;7.93;6.77;;;18.80;99.90;;;;;;5052897;28;20186;-69
2021/07/12 00:19:37;;;;;;;7.57;6.07;;;18.80;99.90;;;;;;5052888;28;20174;-70
2021/07/12 00:22:03;;;;;;;7.13;6.53;;;18.70;99.90;;;;;;5052113;28;20178;-69
2021/07/12 00:24:28;;;;;;;9.90;6.37;;;18.70;99.90;;;;;;5052903;28;20548;-70
2021/07/12 00:26:54;;;;;;;7.33;6.63;;;18.70;99.90;;;;;;5038717;28;20194;-70
2021/07/12 00:29:19;;;;;;;7.50;6.70;;;18.70;99.90;;;;;;5032848;28;20170;-70
2021/07/12 00:31:45;;;;;;;8.13;6.43;;;18.60;99.90;;;;;;5040851;28;20185;-70
2021/07/12 00:34:11;;;;;;;7.80;7.00;;;18.60;99.90;;;;;;5052774;28;20181;-70
2021/07/12 00:36:36;;;;;;;7.27;6.67;;;18.60;99.90;;;;;;5078690;22;20201;-70
2021/07/12 00:39:02;;;;;;;8.93;7.10;;;18.50;99.90;;;;;;5092378;28;20190;-70
2021/07/12 00:41:28;;;;;;;7.30;6.63;;;18.50;99.90;;;;;;5091128;28;20704;-71
2021/07/12 00:43:53;;;;;;;7.60;6.90;;;18.50;99.90;;;;;;5092323;28;20279;-71
2021/07/12 00:46:19;;;;;;;7.70;6.93;;;18.50;99.90;;;;;;5092727;28;20629;-70
2021/07/12 00:48:45;;;;;;;7.07;6.37;;;18.50;99.90;;;;;;5072407;28;20290;-70
2021/07/12 00:51:11;;;;;;;7.20;6.47;;;18.50;99.90;;;;;;5071845;28;20629;-70
2021/07/12 00:53:37;;;;;;;9.07;6.63;;;18.50;99.90;;;;;;5072499;28;20405;-70
2021/07/12 00:56:05;;;;;;;8.03;7.23;;;18.50;99.90;;;;;;5072798;28;20210;-70
2021/07/12 00:58:30;;;;;;;9.73;6.67;;;18.40;99.90;;;;;;5072206;28;20201;-70
2021/07/12 01:18:06;;;;;;;7.17;6.57;;;18.10;99.90;;;;;;5029529;28;20220;-70
2021/07/12 01:21:07;;;;;;;8.37;7.47;;;18.10;99.90;;;;;;5071501;28;20185;-69
2021/07/12 01:24:11;;;;;;;7.80;7.03;;;18.20;99.90;;;;;;5071433;28;20204;-69
2021/07/12 01:27:11;;;;;;;7.93;7.13;;;18.20;99.90;;;;;;5071906;28;20177;-69
2021/07/12 01:29:52;;;;;;;8.00;7.27;;;18.20;99.90;;;;;;5071718;28;20208;-68
2021/07/12 01:32:49;;;;;;;7.77;7.07;;;18.30;99.90;;;;;;5071092;28;20177;-69
2021/07/12 01:35:22;;;;;;;7.30;6.63;;;18.30;99.90;;;;;;5071478;28;20165;-69
2021/07/12 01:38:05;;;;;;;8.43;7.30;;;18.30;99.90;;;;;;5053606;28;20208;-70
2021/07/12 01:40:51;;;;;;;7.93;7.13;;;18.20;99.90;;;;;;5070683;28;20557;-70
2021/07/12 01:43:30;;;;;;;9.30;7.70;;;18.20;99.90;;;;;;5071331;28;20200;-71
2021/07/12 01:46:20;;;;;;;10.00;7.67;;;18.20;99.90;;;;;;5072489;28;20169;-70
2021/07/12 01:49:08;;;;;;;7.83;7.10;;;18.10;99.90;;;;;;5073019;28;20188;-70
2021/07/12 01:51:52;;;;;;;9.50;7.53;;;18.10;99.90;;;;;;5052938;28;20521;-70
2021/07/12 01:54:36;;;;;;;8.67;6.80;;;18.10;99.90;;;;;;5071221;28;20185;-70
2021/07/12 01:57:11;;;;;;;8.33;7.00;;;18.10;99.90;;;;;;5071265;28;20279;-70
2021/07/12 01:59:56;;;;;;;7.80;6.73;;;18.10;99.90;;;;;;5070860;28;20275;-70
2021/07/12 02:02:24;;;;;;;10.17;8.37;;;18.10;99.90;;;;;;5070687;28;20179;-70
2021/07/12 02:04:52;;;;;;;8.80;7.90;;;18.10;99.90;;;;;;5071169;28;20200;-70
2021/07/12 02:07:17;;;;;;;8.87;8.07;;;18.10;99.90;;;;;;5071008;28;20199;-71
2021/07/12 02:09:45;;;;;;;8.30;7.50;;;18.10;99.90;;;;;;5071661;28;20177;-70
2021/07/12 02:12:12;;;;;;;8.50;7.63;;;18.10;99.90;;;;;;5070870;28;20249;-70
2021/07/12 02:14:38;;;;;;;9.43;8.37;;;18.10;99.90;;;;;;5070869;28;20173;-70
2021/07/12 02:17:06;;;;;;;9.03;8.07;;;18.10;99.90;;;;;;5071036;28;20196;-70
2021/07/12 02:19:32;;;;;;;8.80;7.47;;;18.10;99.90;;;;;;5070593;28;20173;-70
2021/07/12 02:22:00;;;;;;;9.93;8.57;;;18.10;99.90;;;;;;5070264;28;20176;-70
2021/07/12 02:24:26;;;;;;;9.80;8.90;;;18.10;99.90;;;;;;5070780;28;20607;-71
2021/07/12 02:26:53;;;;;;;12.07;9.43;;;18.10;99.90;;;;;;5070337;28;20733;-70
2021/07/12 02:29:20;;;;;;;9.67;8.57;;;18.10;99.90;;;;;;5070654;28;20559;-70
2021/07/12 02:31:48;;;;;;;9.50;8.50;;;18.10;99.90;;;;;;5070452;28;20222;-70
2021/07/12 02:34:14;;;;;;;10.40;8.83;;;18.10;99.90;;;;;;5071093;28;20593;-70
2021/07/12 02:36:40;;;;;;;10.30;9.03;;;18.10;99.90;;;;;;5071207;28;20197;-70
2021/07/12 02:39:08;;;;;;;10.13;8.97;;;18.10;99.90;;;;;;5070812;28;20225;-70
2021/07/12 02:41:34;;;;;;;10.10;9.17;;;18.10;99.90;;;;;;5070089;28;20181;-70
2021/07/12 02:44:00;;;;;;;12.67;9.00;;;18.10;99.90;;;;;;5070675;28;20201;-71
2021/07/12 02:46:28;;;;;;;10.20;9.30;;;18.10;99.90;;;;;;5071069;28;20211;-71
2021/07/12 02:48:54;;;;;;;11.00;9.93;;;18.10;99.90;;;;;;5070580;28;20185;-70
2021/07/12 02:51:26;;;;;;;10.00;9.00;;;18.10;99.90;;;;;;5070250;28;20176;-70
2021/07/12 02:53:59;;;;;;;11.37;9.17;;;18.20;99.90;;;;;;5070634;28;20169;-70
2021/07/12 02:56:24;;;;;;;11.87;9.47;;;18.20;99.90;;;;;;5070709;28;20169;-70
2021/07/12 02:58:50;;;;;;;12.67;10.47;;;18.20;99.90;;;;;;5070782;28;20183;-71
2021/07/12 03:01:16;;;;;;;11.80;9.73;;;18.30;99.90;;;;;;5070191;28;20234;-70
2021/07/12 03:03:41;;;;;;;11.27;10.17;;;18.20;99.90;;;;;;5070218;28;20204;-70
2021/07/12 03:06:11;;;;;;;11.23;10.13;;;18.20;99.90;;;;;;5070469;28;20222;-70
2021/07/12 03:08:49;;;;;;;14.03;10.10;;;18.30;99.90;;;;;;5070296;28;20665;-71
2021/07/12 03:11:16;;;;;;;12.93;10.20;;;18.30;99.90;;;;;;5069926;28;20529;-71
2021/07/12 03:13:53;;;;;;;12.57;10.33;;;18.30;99.90;;;;;;5070156;28;20169;-71
2021/07/12 03:16:19;;;;;;;11.70;9.97;;;18.30;99.90;;;;;;5070102;28;20263;-71
2021/07/12 03:18:59;;;;;;;12.67;10.13;;;18.30;99.90;;;;;;5070316;28;20203;-70
2021/07/12 03:21:25;;;;;;;12.90;10.90;;;18.30;99.90;;;;;;5048639;28;20209;-70
2021/07/12 03:23:54;;;;;;;12.17;10.00;;;18.30;99.90;;;;;;5050144;28;20205;-70
2021/07/12 03:26:23;;;;;;;11.93;10.37;;;18.40;99.90;;;;;;5050381;28;20200;-70
2021/07/12 03:28:52;;;;;;;11.43;10.33;;;18.40;99.90;;;;;;5050723;28;20539;-70
2021/07/12 03:31:21;;;;;;;12.13;10.17;;;18.40;99.90;;;;;;5052296;28;20162;-70
2021/07/12 03:33:50;;;;;;;12.03;10.93;;;18.40;99.90;;;;;;5049998;28;20677;-70
2021/07/12 03:36:16;;;;;;;15.47;10.17;;;18.40;99.90;;;;;;5032301;28;20174;-70
2021/07/12 03:38:42;;;;;;;11.37;9.70;;;18.40;99.90;;;;;;5061801;28;20209;-70
2021/07/12 03:41:08;;;;;;;12.33;9.70;;;18.50;99.90;;;;;;5073342;28;20267;-70
2021/07/12 03:43:33;;;;;;;13.63;10.30;;;18.50;99.90;;;;;;5073713;28;20185;-70
2021/07/12 03:46:01;;;;;;;11.90;9.50;;;18.70;99.90;;;;;;5073793;28;20248;-70
2021/07/12 03:48:44;;;;;;;11.03;9.33;;;19.00;99.90;;;;;;5074039;28;20185;-70
2021/07/12 03:51:26;;;;;;;11.93;9.60;;;19.10;99.90;;;;;;5073400;28;20550;-70
2021/07/12 03:53:51;;;;;;;13.23;9.70;;;19.10;99.90;;;;;;5073891;28;20196;-70
2021/07/12 03:56:17;;;;;;;9.70;8.80;;;19.30;99.90;;;;;;5068445;28;20657;-70
2021/07/12 03:58:44;;;;;;;10.90;7.93;;;19.40;99.90;;;;;;5073378;28;20278;-70
2021/07/12 04:01:09;;;;;;;9.83;8.03;;;20.00;99.90;;;;;;5073653;28;20177;-71
2021/07/12 04:03:35;;;;;;;8.53;7.57;;;20.60;99.90;;;;;;5074063;28;20200;-70
2021/07/12 04:06:00;;;;;;;7.83;7.10;;;20.70;99.90;;;;;;5073683;28;20231;-71
2021/07/12 04:08:26;;;;;;;8.73;7.27;;;20.50;99.90;;;;;;5073780;28;20188;-70
2021/07/12 04:10:52;;;;;;;7.80;7.03;;;20.40;99.90;;;;;;5072867;28;20169;-69
2021/07/12 04:13:17;;;;;;;8.97;7.70;;;20.50;99.90;;;;;;5073361;28;20682;-70
2021/07/12 04:15:43;;;;;;;12.53;8.10;;;20.20;99.90;;;;;;5073707;28;20177;-70
2021/07/12 04:18:09;;;;;;;8.57;7.40;;;20.00;99.90;;;;;;5073119;28;20206;-70
2021/07/12 04:20:35;;;;;;;8.97;8.07;;;19.70;99.90;;;;;;5072600;28;20184;-70
2021/07/12 04:23:02;;;;;;;9.33;7.97;;;19.40;99.90;;;;;;5073372;28;20568;-70
2021/07/12 04:25:28;;;;;;;10.30;8.37;;;19.40;99.90;;;;;;5072892;28;20169;-69
2021/07/12 04:27:55;;;;;;;9.27;7.93;;;19.30;99.90;;;;;;5072842;28;20200;-69
2021/07/12 04:30:21;;;;;;;9.07;8.17;;;19.30;99.90;;;;;;5073189;28;20624;-69
2021/07/12 04:32:46;;;;;;;7.93;7.23;;;19.30;99.90;;;;;;5072747;28;20165;-69
2021/07/12 04:35:13;;;;;;;9.33;7.90;;;19.40;99.90;;;;;;5072870;28;20183;-69
2021/07/12 04:37:39;;;;;;;9.53;8.57;;;19.40;99.90;;;;;;5072789;28;20758;-69
2021/07/12 04:40:05;;;;;;;10.27;7.97;;;19.50;99.90;;;;;;5073133;28;20170;-69
2021/07/12 04:42:31;;;;;;;9.60;8.60;;;19.50;99.90;;;;;;5072253;28;20165;-68
2021/07/12 04:44:57;;;;;;;10.00;8.10;;;19.50;99.90;;;;;;5073100;28;20176;-69
2021/07/12 04:47:23;;;;;;;10.63;8.23;;;19.60;99.90;;;;;;5072447;28;20208;-69
2021/07/12 04:49:49;;;;;;;8.87;7.43;;;19.70;99.90;;;;;;5072112;28;20173;-68
2021/07/12 04:52:14;;;;;;;8.87;8.10;;;19.80;99.90;;;;;;5071927;28;20409;-68
2021/07/12 04:54:40;;;;;;;9.30;7.90;;;19.90;99.90;;;;;;5072438;28;20260;-68
2021/07/12 04:57:06;;;;;;;9.10;8.20;;;19.90;99.90;;;;;;5072171;28;20200;-68
2021/07/12 04:59:38;;;;;;;8.83;7.87;;;19.80;99.90;;;;;;5072603;28;20678;-69
2021/07/12 05:02:04;;;;;;;8.30;7.50;;;19.90;99.90;;;;;;5071964;28;20248;-68
2021/07/12 05:04:30;;;;;;;9.30;8.00;;;19.90;99.90;;;;;;5072188;28;20193;-69
2021/07/12 05:06:55;;;;;;;9.90;8.90;;;19.90;99.90;;;;;;5054322;28;20244;-69
2021/07/12 05:09:21;;;;;;;10.03;7.53;;;20.00;99.90;;;;;;5072625;28;20169;-70
2021/07/12 05:11:47;;;;;;;8.30;7.60;;;20.00;99.90;;;;;;5071656;28;20169;-70
2021/07/12 05:14:12;;;;;;;8.83;7.63;;;20.10;99.90;;;;;;5077404;28;20184;-70
2021/07/12 05:16:40;;;;;;;10.67;8.03;;;20.00;99.90;;;;;;5055214;28;20650;-70
2021/07/12 05:19:06;;;;;;;12.20;8.03;;;20.00;99.90;;;;;;5072454;28;20252;-70
2021/07/12 05:21:32;;;;;;;7.77;6.97;;;20.00;99.90;;;;;;5071740;28;20318;-70
2021/07/12 05:23:57;;;;;;;11.43;7.20;;;20.10;99.90;;;;;;5071809;28;20200;-70
2021/07/12 05:26:23;;;;;;;9.27;7.67;;;20.40;99.90;;;;;;5071867;28;20184;-69
2021/07/12 05:28:49;;;;;;;7.30;6.60;;;20.50;99.90;;;;;;5071825;28;20192;-69
2021/07/12 05:31:14;;;;;;;8.87;7.27;;;20.80;99.90;;;;;;5071289;28;20169;-69
2021/07/12 05:33:40;;;;;;;8.90;6.97;;;21.00;99.90;;;;;;5071717;28;20201;-69
2021/07/12 05:36:05;;;;;;;7.40;6.60;;;21.30;99.90;;;;;;5054013;28;20230;-69
2021/07/12 05:38:32;;;;;;;7.80;7.00;;;21.30;99.90;;;;;;5071304;28;20241;-69
2021/07/12 05:40:58;;;;;;;6.87;6.23;;;21.30;99.90;;;;;;5070853;28;20169;-68
2021/07/12 05:43:23;;;;;;;6.63;5.90;;;21.40;99.90;;;;;;5072048;28;20197;-69
2021/07/12 05:45:49;;;;;;;7.30;6.60;;;21.40;99.90;;;;;;5071444;28;20162;-68
2021/07/12 05:48:14;;;;;;;6.63;5.97;;;21.40;99.90;;;;;;5066139;28;20189;-68
2021/07/12 05:50:40;;;;;;;7.00;6.30;;;21.50;99.90;;;;;;5060719;28;20697;-69
2021/07/12 05:53:05;;;;;;;8.47;5.97;;;21.70;99.90;;;;;;5052342;28;20166;-69
2021/07/12 05:55:31;;;;;;;6.53;5.90;;;21.80;99.90;;;;;;5067905;28;20176;-69
2021/07/12 05:57:57;;;;;;;6.30;5.67;;;21.80;99.90;;;;;;5071487;28;20682;-69
2021/07/12 06:00:23;;;;;;;9.47;6.50;;;21.70;99.90;;;;;;5069877;28;20180;-71
2021/07/12 06:02:49;;;;;;;8.43;6.00;;;21.80;99.90;;;;;;5071158;28;20651;-69
2021/07/12 06:05:14;;;;;;;6.93;6.23;;;21.70;99.90;;;;;;5045596;28;20200;-69
2021/07/12 06:07:40;;;;;;;6.40;5.80;;;21.70;99.90;;;;;;5051910;28;20218;-69
2021/07/12 06:10:07;;;;;;;5.93;5.43;;;21.70;99.90;;;;;;5060825;28;20175;-69
2021/07/12 06:12:33;;;;;;;8.10;5.93;;;21.80;99.90;;;;;;5070583;28;20660;-69
2021/07/12 06:14:59;;;;;;;7.53;6.00;;;21.90;99.90;;;;;;5071786;28;20175;-70
2021/07/12 06:17:25;;;;;;;8.47;5.70;;;22.30;99.90;;;;;;5071345;28;20678;-70
2021/07/12 06:19:50;;;;;;;6.87;5.70;;;22.50;99.90;;;;;;5071614;28;20170;-69
2021/07/12 06:22:16;;;;;;;5.50;4.87;;;22.80;99.90;;;;;;5071176;28;20256;-70
2021/07/12 06:24:41;;;;;;;5.20;4.70;;;23.00;99.90;;;;;;5070994;28;20274;-69
2021/07/12 06:27:07;;;;;;;5.37;4.80;;;22.60;99.90;;;;;;5071559;28;20189;-69
2021/07/12 06:29:32;;;;;;;6.87;5.63;;;22.50;99.90;;;;;;5070895;28;20187;-69
2021/07/12 06:31:58;;;;;;;5.30;4.77;;;22.50;99.90;;;;;;5069691;28;20177;-68
2021/07/12 06:34:24;;;;;;;8.33;5.47;;;22.30;99.90;;;;;;5071252;28;20167;-69
2021/07/12 06:36:50;;;;;;;8.73;5.77;;;22.30;99.90;;;;;;5088464;22;20293;-73
2021/07/12 06:39:16;;;;;;;7.63;5.73;;;22.20;99.90;;;;;;5070284;28;20626;-72
2021/07/12 06:41:42;;;;;;;5.40;4.90;;;22.10;99.90;;;;;;5069870;28;20179;-71
2021/07/12 06:44:08;;;;;;;5.17;4.77;;;22.10;99.90;;;;;;5070459;28;20268;-71
2021/07/12 06:46:33;;;;;;;6.50;5.90;;;22.30;99.90;;;;;;5070239;28;20210;-71
2021/07/12 06:48:59;;;;;;;5.97;5.50;;;22.50;99.90;;;;;;5070519;28;20213;-72
2021/07/12 06:57:21;;;;;;;5.67;5.17;;;22.50;99.90;;;;;;5043110;28;20599;-68
2021/07/12 06:59:50;;;;;;;6.93;5.40;;;22.80;99.90;;;;;;5051480;28;20196;-71
2021/07/12 07:02:15;;;;;;;6.03;4.47;;;22.90;99.90;;;;;;5051346;28;20183;-69
2021/07/12 07:04:41;;;;;;;5.60;5.17;;;23.10;99.90;;;;;;5049803;28;20204;-69
2021/07/12 07:07:07;;;;;;;6.03;4.88;;;23.30;99.90;;;;;;5071618;22;20761;-68
2021/07/12 07:09:33;;;;;;;7.13;4.77;;;23.40;99.90;;;;;;5050381;28;20168;-68
2021/07/12 07:11:58;;;;;;;4.97;4.53;;;23.50;99.90;;;;;;5053124;28;20481;-69
2021/07/12 07:14:24;;;;;;;5.40;4.87;;;23.30;99.90;;;;;;5056459;28;20511;-69
2021/07/12 07:16:49;;;;;;;5.22;4.72;;;23.50;99.90;;;;;;5069882;28;20612;-68
2021/07/12 07:19:15;;;;;;;4.93;4.53;;;23.30;99.90;;;;;;5076266;28;20174;-68
2021/07/12 07:21:41;;;;;;;5.50;4.80;;;23.20;99.90;;;;;;5076554;28;20200;-68
2021/07/12 07:24:06;;;;;;;4.82;4.43;;;23.30;99.90;;;;;;5075474;28;20332;-69
2021/07/12 07:26:32;;;;;;;5.43;4.93;;;23.10;99.90;;;;;;5071854;28;20202;-69
2021/07/12 07:28:58;;;;;;;5.27;4.67;;;23.10;99.90;;;;;;5055825;28;20192;-69
2021/07/12 07:31:24;;;;;;;4.90;4.40;;;23.20;99.90;;;;;;5058125;28;20175;-69
2021/07/12 07:33:50;;;;;;;5.43;4.90;;;23.30;99.90;;;;;;5054160;28;20206;-68
2021/07/12 07:36:16;;;;;;;5.13;4.63;;;23.50;99.90;;;;;;5056303;28;20196;-68
2021/07/12 07:38:42;;;;;;;7.37;5.33;;;23.30;99.90;;;;;;5074636;28;20579;-68
2021/07/12 07:41:08;;;;;;;5.53;4.90;;;23.00;99.90;;;;;;5074243;28;20276;-68
2021/07/12 07:43:33;;;;;;;6.63;5.10;;;23.10;99.90;;;;;;5075432;28;20289;-68
2021/07/12 07:45:59;;;;;;;5.95;5.03;;;23.30;99.90;;;;;;5074819;28;20182;-68
2021/07/12 07:48:24;;;;;;;5.07;4.50;;;23.30;99.90;;;;;;5075835;28;20172;-70
2021/07/12 07:50:50;;;;;;;6.07;5.10;;;23.30;99.90;;;;;;5063604;28;20173;-69
2021/07/12 07:53:16;;;;;;;4.87;4.47;;;23.50;99.90;;;;;;5053650;28;20184;-68
2021/07/12 07:55:42;;;;;;;4.60;4.20;;;23.70;99.90;;;;;;5056027;28;20226;-69
2021/07/12 07:58:07;;;;;;;5.43;4.93;;;23.80;99.90;;;;;;5056884;28;20289;-69
2021/07/12 08:00:33;;;;;;;6.22;4.72;;;23.90;99.90;;;;;;5057200;28;20310;-70
2021/07/12 08:02:59;;;;;;;5.18;4.78;;;24.20;99.90;;;;;;5055382;28;20219;-69
2021/07/12 08:05:25;;;;;;;6.38;5.03;;;24.30;99.90;;;;;;5056648;28;20175;-69
2021/07/12 08:07:51;;;;;;;5.22;4.35;;;24.60;99.90;;;;;;5055945;28;20204;-70
2021/07/12 08:10:19;;;;;;;4.90;4.40;;;24.70;99.90;;;;;;5056307;28;20419;-69
2021/07/12 08:12:45;;;;;;;6.40;4.38;;;24.40;99.90;;;;;;5049082;28;20181;-69
2021/07/12 08:15:13;;;;;;;7.78;4.90;;;24.40;99.90;;;;;;5055427;28;20598;-69
2021/07/12 08:17:40;;;;;;;6.93;4.70;;;24.70;99.90;;;;;;5055539;28;20175;-69
2021/07/12 08:20:07;;;;;;;4.70;4.15;;;24.80;99.90;;;;;;5055281;28;20650;-68
2021/07/12 08:22:33;;;;;;;4.70;4.30;;;24.70;99.90;;;;;;5055710;28;20192;-69
2021/07/12 08:25:02;;;;;;;8.00;4.13;;;24.50;99.90;;;;;;5054069;28;20258;-68
2021/07/12 08:27:28;;;;;;;7.47;3.38;;;24.70;99.90;;;;;;5054753;28;20198;-69
2021/07/12 08:29:53;;;;;;;5.05;3.97;;;24.80;99.90;;;;;;5055256;28;20179;-68
2021/07/12 08:32:19;;;;;;;5.93;4.20;;;24.80;99.90;;;;;;5055204;28;20360;-68
2021/07/12 08:34:44;;;;;;;4.47;4.07;;;25.00;99.90;;;;;;5054479;28;20203;-68
2021/07/12 08:37:12;;;;;;;4.40;4.00;;;24.40;99.90;;;;;;5054387;28;20201;-69
2021/07/12 08:39:37;;;;;;;11.40;4.60;;;24.20;99.90;;;;;;5054414;28;20255;-68
2021/07/12 08:42:03;;;;;;;5.75;4.32;;;24.20;99.90;;;;;;5054620;28;20214;-68
2021/07/12 08:44:29;;;;;;;4.45;4.03;;;24.50;99.90;;;;;;5054620;28;20213;-68
2021/07/12 08:46:56;;;;;;;6.22;5.00;;;24.70;99.90;;;;;;5054708;28;20243;-68
2021/07/12 08:49:23;;;;;;;5.43;4.38;;;24.50;99.90;;;;;;5050342;28;20182;-70
2021/07/12 08:51:49;;;;;;;4.20;3.80;;;24.90;99.90;;;;;;5065178;28;20200;-67
2021/07/12 08:54:15;;;;;;;4.13;3.75;;;25.00;99.90;;;;;;5060336;28;20681;-69
2021/07/12 08:56:41;;;;;;;3.58;3.28;;;25.10;99.90;;;;;;5066683;28;20199;-69
2021/07/12 08:59:30;;;;;;;4.20;3.80;;;25.10;99.90;;;;;;5067525;28;20176;-69
2021/07/12 09:02:04;;;;;;;4.63;3.47;;;25.10;99.90;;;;;;5054702;28;20255;-68
2021/07/12 09:04:30;;;;;;;3.65;3.30;;;25.20;99.90;;;;;;5070263;28;20293;-69
2021/07/12 09:07:00;;;;;;;3.70;3.40;;;25.20;99.90;;;;;;5053412;28;20628;-69
2021/07/12 09:09:26;;;;;;;4.28;3.25;;;25.10;99.90;;;;;;5064136;28;20182;-68
2021/07/12 09:11:51;;;;;;;3.63;3.33;;;25.20;99.90;;;;;;5071459;28;20184;-68
2021/07/12 09:14:18;;;;;;;5.03;3.10;;;25.10;99.90;;;;;;5057017;28;20187;-68
2021/07/12 09:16:49;;;;;;;3.78;3.40;;;25.20;99.90;;;;;;5069499;28;20196;-69
2021/07/12 09:19:21;;;;;;;3.75;3.17;;;25.20;99.90;;;;;;5064053;28;20255;-69
2021/07/12 09:22:04;;;;;;;3.70;3.22;;;25.30;99.90;;;;;;5074186;28;20179;-69
2021/07/12 09:24:36;;;;;;;3.92;3.40;;;25.40;99.90;;;;;;5056827;28;20604;-68
2021/07/12 09:27:06;;;;;;;6.80;3.60;;;25.40;99.90;;;;;;5054494;28;20306;-69
2021/07/12 09:29:38;;;;;;;4.18;3.00;;;25.50;99.90;;;;;;5055969;28;20684;-68
2021/07/12 09:32:06;;;;;;;4.13;3.63;;;25.50;99.90;;;;;;5069091;28;20195;-68
2021/07/12 09:34:32;;;;;;;3.65;3.10;;;25.40;99.90;;;;;;5069503;28;20642;-68
2021/07/12 09:36:57;;;;;;;5.18;3.40;;;25.20;99.90;;;;;;5060774;28;20204;-71
2021/07/12 09:39:30;;;;;;;3.92;3.47;;;25.40;99.90;;;;;;5066230;28;20230;-68
2021/07/12 09:42:09;;;;;;;3.50;3.17;;;25.30;99.90;;;;;;5061523;28;20181;-68
2021/07/12 09:44:46;;;;;;;3.35;3.10;;;25.10;99.90;;;;;;5057089;28;20771;-68
2021/07/12 09:47:29;;;;;;;4.15;3.35;;;24.90;99.90;;;;;;5062746;28;20562;-68
2021/07/12 09:50:05;;;;;;;3.95;3.30;;;25.00;99.90;;;;;;5071598;28;20263;-68
2021/07/12 09:52:48;;;;;;;3.80;2.88;;;25.00;99.90;;;;;;5068291;28;20643;-67
2021/07/12 09:55:26;;;;;;;3.80;3.10;;;25.00;99.90;;;;;;5063246;28;20184;-69
2021/07/12 09:58:13;;;;;;;6.10;3.60;;;24.80;99.90;;;;;;5055519;28;20548;-68
2021/07/12 10:00:41;;;;;;;3.80;3.50;;;24.70;99.90;;;;;;5043865;28;20168;-69
2021/07/12 10:03:07;;;;;;;4.20;3.08;;;24.80;99.90;;;;;;5066116;28;20204;-69
2021/07/12 10:05:32;;;;;;;3.67;3.13;;;25.10;99.90;;;;;;5078592;28;20183;-70
2021/07/12 10:07:59;;;;;;;3.30;3.00;;;25.10;99.90;;;;;;5061410;28;20208;-68
2021/07/12 10:10:25;;;;;;;4.40;3.22;;;25.20;99.90;;;;;;5069203;28;20272;-69
2021/07/12 10:12:52;;;;;;;4.50;3.90;;;25.60;99.90;;;;;;5058158;28;20204;-69
2021/07/12 10:15:19;;;;;;;4.38;2.65;;;25.80;99.90;;;;;;5064251;28;20174;-69
2021/07/12 10:17:46;;;;;;;3.88;2.97;;;26.10;99.90;;;;;;5053105;28;20637;-69
2021/07/12 10:20:13;;;;;;;3.17;2.70;;;26.60;99.90;;;;;;5053914;28;20648;-69
2021/07/12 10:22:42;;;;;;;3.10;2.80;;;26.90;99.90;;;;;;5053136;28;20177;-67
2021/07/12 10:25:10;;;;;;;3.03;2.58;;;26.80;99.90;;;;;;5052732;28;20207;-69
2021/07/12 10:27:57;;;;;;;2.58;2.38;;;26.50;99.90;;;;;;5052212;28;20247;-68
2021/07/12 10:30:29;;;;;;;3.53;2.45;;;26.20;99.90;;;;;;5053278;28;20169;-68
2021/07/12 10:32:57;;;;;;;2.42;2.22;;;26.30;99.90;;;;;;5053299;28;20170;-68
2021/07/12 10:35:44;;;;;;;2.58;2.28;;;26.40;99.90;;;;;;5053408;28;20192;-70
2021/07/12 10:38:12;;;;;;;2.97;2.08;;;26.60;99.90;;;;;;5048899;28;20181;-68
2021/07/12 10:40:58;;;;;;;3.08;2.78;;;26.40;99.90;;;;;;5046078;28;20189;-69
2021/07/12 10:43:46;;;;;;;4.97;2.20;;;26.40;99.90;;;;;;5051982;28;20203;-69
2021/07/12 10:46:24;;;;;;;2.85;2.65;;;26.30;99.90;;;;;;5044357;28;20197;-68
2021/07/12 10:48:50;;;;;;;3.10;2.30;;;26.20;99.90;;;;;;5064185;28;20180;-68
2021/07/12 10:51:28;;;;;;;3.47;2.30;;;26.20;99.90;;;;;;5072656;28;20260;-68
2021/07/12 10:54:07;;;;;;;2.50;2.30;;;26.60;99.90;;;;;;5066043;28;20223;-69
2021/07/12 10:56:48;;;;;;;2.95;2.20;;;26.70;99.90;;;;;;5053458;28;20197;-68
2021/07/12 10:59:40;;;;;;;4.15;2.00;;;26.50;99.90;;;;;;5052793;28;20237;-68
2021/07/12 11:02:14;;;;;;;4.25;2.25;;;26.40;99.90;;;;;;5042265;28;20173;-68
2021/07/12 11:04:53;;;;;;;4.03;2.35;;;26.30;99.90;;;;;;5056980;28;20212;-70
2021/07/12 11:07:41;;;;;;;2.88;2.08;;;26.40;99.90;;;;;;5054110;28;20426;-70
2021/07/12 11:10:19;;;;;;;2.58;1.95;;;26.00;99.90;;;;;;5053250;28;20633;-68
2021/07/12 11:12:53;;;;;;;5.22;2.50;;;25.60;99.90;;;;;;5053872;28;20240;-69
2021/07/12 11:15:22;;;;;;;2.53;2.15;;;25.40;99.90;;;;;;5056227;28;20651;-69
2021/07/12 11:18:00;;;;;;;3.08;1.90;;;25.90;99.90;;;;;;5056743;28;20176;-68
2021/07/12 11:20:52;;;;;;;2.20;2.00;;;26.20;99.90;;;;;;5055238;28;20162;-69
2021/07/12 11:23:36;;;;;;;2.72;2.05;;;26.50;99.90;;;;;;5054099;28;20205;-69
2021/07/12 11:26:02;;;;;;;2.97;2.05;;;26.60;99.90;;;;;;5052784;28;20255;-69
2021/07/12 11:28:45;;;;;;;2.20;1.70;;;26.80;99.90;;;;;;5052507;28;20532;-69
2021/07/12 11:31:46;;;;;;;3.83;1.98;;;27.20;99.90;;;;;;5051991;28;20525;-69
2021/07/12 11:34:25;;;;;;;2.80;1.60;;;27.40;99.90;;;;;;5052913;28;20212;-69
2021/07/12 11:37:10;;;;;;;6.22;1.67;;;27.20;99.90;;;;;;5052142;28;20197;-69
2021/07/12 11:39:47;;;;;;;2.15;1.85;;;26.60;99.90;;;;;;5052206;28;20532;-69
2021/07/12 11:42:25;;;;;;;2.17;1.98;;;26.20;99.90;;;;;;5052231;28;20188;-69
2021/07/12 11:45:00;;;;;;;2.15;1.95;;;26.10;99.90;;;;;;5051730;28;20248;-69
2021/07/12 11:47:55;;;;;;;1.75;1.63;;;26.30;99.90;;;;;;5052126;28;20193;-68
2021/07/12 11:50:30;;;;;;;3.63;2.00;;;26.70;99.90;;;;;;5052197;28;20182;-69
2021/07/12 11:53:04;;;;;;;2.47;1.90;;;27.00;99.90;;;;;;5052121;28;20177;-69
2021/07/12 11:55:32;;;;;;;2.42;1.85;;;27.10;99.90;;;;;;5053113;28;20553;-69
2021/07/12 11:58:00;;;;;;;3.10;2.03;;;27.10;99.90;;;;;;5052895;28;20515;-68
2021/07/12 12:00:28;;;;;;;1.80;1.60;;;26.90;99.90;;;;;;5054386;28;20193;-69
2021/07/12 12:03:03;;;;;;;2.40;2.20;;;26.80;99.90;;;;;;5055871;28;20243;-69
2021/07/12 12:05:30;;;;;;;2.03;1.92;;;26.80;99.90;;;;;;5055962;28;20271;-68
2021/07/12 12:08:00;;;;;;;3.90;2.22;;;26.70;99.90;;;;;;5055893;28;20176;-68
2021/07/12 12:10:38;;;;;;;2.63;2.25;;;26.90;99.90;;;;;;5055608;28;20174;-69
2021/07/12 12:13:19;;;;;;;2.30;1.92;;;26.80;99.90;;;;;;5056147;28;20173;-69
2021/07/12 12:15:47;;;;;;;2.67;1.60;;;26.90;99.90;;;;;;5055323;28;20611;-69
2021/07/12 12:18:15;;;;;;;2.70;2.30;;;26.70;99.90;;;;;;5056143;28;20177;-69
2021/07/12 12:20:44;;;;;;;3.28;2.55;;;26.90;99.90;;;;;;5055190;28;20241;-69
2021/07/12 12:23:18;;;;;;;3.13;2.28;;;27.50;99.90;;;;;;5055225;28;20220;-69
2021/07/12 12:25:52;;;;;;;4.45;2.50;;;27.50;99.90;;;;;;5055366;28;20189;-69
2021/07/12 12:28:28;;;;;;;5.15;2.42;;;27.50;99.90;;;;;;5053910;28;20172;-69
2021/07/12 12:30:55;;;;;;;2.60;2.40;;;27.60;99.90;;;;;;5053652;28;20176;-68
2021/07/12 12:33:25;;;;;;;5.47;2.67;;;27.40;99.90;;;;;;5055200;28;20520;-69
2021/07/12 12:35:58;;;;;;;5.32;2.80;;;27.00;99.90;;;;;;5055386;28;20299;-69
2021/07/12 12:38:24;;;;;;;3.33;2.72;;;27.10;99.90;;;;;;5055821;28;20260;-69
2021/07/12 12:40:57;;;;;;;4.72;2.70;;;27.30;99.90;;;;;;5055613;28;20174;-69
2021/07/12 12:43:23;;;;;;;2.67;2.40;;;27.10;99.90;;;;;;5059235;28;20193;-68
2021/07/12 12:45:51;;;;;;;3.15;2.92;;;27.00;99.90;;;;;;5065629;28;20191;-70
2021/07/12 12:48:34;;;;;;;5.15;3.65;;;26.90;99.90;;;;;;5055929;28;20178;-69
2021/07/12 12:51:24;;;;;;;3.63;2.80;;;26.80;99.90;;;;;;5035099;28;20176;-69
2021/07/12 12:54:09;;;;;;;3.65;3.22;;;26.70;99.90;;;;;;5050779;28;20166;-70
2021/07/12 12:56:37;;;;;;;4.00;2.65;;;26.90;99.90;;;;;;5054631;28;20676;-70
2021/07/12 12:59:06;;;;;;;3.75;3.00;;;27.10;99.90;;;;;;5051867;28;20192;-69
2021/07/12 13:01:40;;;;;;;3.78;2.83;;;27.30;99.90;;;;;;5055184;28;20174;-69
2021/07/12 13:04:11;;;;;;;3.08;2.60;;;27.50;99.90;;;;;;5054936;28;20687;-69
2021/07/12 13:07:00;;;;;;;3.67;2.95;;;27.10;99.90;;;;;;5052825;22;20232;-71
2021/07/12 13:09:33;;;;;;;3.60;3.30;;;26.80;99.90;;;;;;5015298;28;20211;-71
2021/07/12 13:12:06;;;;;;;3.58;2.58;;;26.80;99.90;;;;;;4994156;28;20187;-71
2021/07/12 13:14:32;;;;;;;2.78;2.50;;;26.80;99.90;;;;;;5009351;28;20174;-70
2021/07/12 13:17:09;;;;;;;3.15;2.55;;;26.90;99.90;;;;;;5017022;28;20261;-71
2021/07/12 13:19:36;;;;;;;2.88;2.60;;;26.80;99.90;;;;;;5014027;28;20178;-71
2021/07/12 13:22:02;;;;;;;4.35;2.35;;;27.10;99.90;;;;;;5012436;28;20182;-71